Time;durP1;ratioP1;P1;durP2;ratioP2;P2;SDS_P1;SDS_P2;PMS_P1;PMS_P2;Temp;Humidity;BMP_temperature;BMP_pressure;BME280_temperature;BME280_humidity;BME280_pressure;Samples;Min_cycle;Max_cycle;Signal;HPM_P1;HPM_P2
2021/08/31 00:01:42;;;;;;;15.57;6.85;;;;;;;11.65;100.00;101148.47;5054127;28;20044;-83
2021/08/31 00:04:08;;;;;;;12.63;6.80;;;;;;;11.59;100.00;101149.41;5054312;28;20025;-83
2021/08/31 00:06:33;;;;;;;11.50;7.20;;;;;;;11.57;100.00;101156.34;5054537;28;20499;-83
2021/08/31 00:08:58;;;;;;;12.80;6.82;;;;;;;11.61;100.00;101147.66;5054126;28;20465;-84
2021/08/31 00:11:23;;;;;;;12.73;6.97;;;;;;;11.48;100.00;101146.97;5055191;28;20033;-83
2021/08/31 00:13:49;;;;;;;10.20;6.63;;;;;;;11.44;100.00;101155.66;5057656;28;20108;-83
2021/08/31 00:16:14;;;;;;;10.70;6.95;;;;;;;11.49;100.00;101156.47;5055435;28;20473;-84
2021/08/31 00:18:42;;;;;;;11.60;6.63;;;;;;;11.55;100.00;101152.94;5056422;28;20017;-84
2021/08/31 00:21:07;;;;;;;12.50;6.97;;;;;;;11.63;100.00;101145.03;5054879;28;20028;-83
2021/08/31 00:23:32;;;;;;;10.13;6.25;;;;;;;11.62;100.00;101141.56;5055512;28;20021;-83
2021/08/31 00:25:57;;;;;;;11.30;6.45;;;;;;;11.63;100.00;101142.44;5054878;28;20508;-84
2021/08/31 00:28:23;;;;;;;12.10;6.93;;;;;;;11.53;100.00;101142.53;5054823;28;20039;-83
2021/08/31 00:30:48;;;;;;;14.73;6.97;;;;;;;11.51;100.00;101141.72;5056259;28;20040;-83
2021/08/31 00:33:14;;;;;;;12.65;6.57;;;;;;;11.48;100.00;101138.28;5054751;28;20481;-83
2021/08/31 00:35:39;;;;;;;13.98;6.90;;;;;;;11.47;100.00;101141.78;5056586;28;20055;-83
2021/08/31 00:38:04;;;;;;;11.93;6.05;;;;;;;11.46;100.00;101145.25;5057272;28;20075;-83
2021/08/31 00:40:30;;;;;;;12.93;6.72;;;;;;;11.47;100.00;101145.22;5055487;28;20465;-83
2021/08/31 00:42:55;;;;;;;12.80;6.95;;;;;;;11.48;100.00;101153.88;5058564;28;20053;-83
2021/08/31 00:45:22;;;;;;;10.48;6.43;;;;;;;11.50;100.00;101152.97;5058359;28;20033;-83
2021/08/31 00:47:47;;;;;;;11.13;6.35;;;;;;;11.51;100.00;101141.72;5059400;28;20096;-83
2021/08/31 00:50:14;;;;;;;12.35;6.75;;;;;;;11.50;100.00;101152.13;5055994;28;20067;-83
2021/08/31 00:52:40;;;;;;;11.50;6.63;;;;;;;11.43;100.00;101147.88;5056771;28;20025;-83
2021/08/31 00:55:07;;;;;;;10.43;6.30;;;;;;;11.42;100.00;101156.53;5055267;28;20025;-83
2021/08/31 00:57:33;;;;;;;14.38;6.60;;;;;;;11.40;100.00;101153.13;5056475;28;20017;-84
2021/08/31 00:59:58;;;;;;;9.25;5.80;;;;;;;11.47;100.00;101149.56;5055216;28;20047;-83
2021/08/31 01:02:24;;;;;;;10.05;6.13;;;;;;;11.45;100.00;101154.78;5055145;28;20029;-83
2021/08/31 01:04:50;;;;;;;10.10;5.82;;;;;;;11.43;100.00;101159.13;5055079;28;20025;-83
2021/08/31 01:07:15;;;;;;;14.32;6.63;;;;;;;11.39;100.00;101164.38;5054935;28;20083;-84
2021/08/31 01:09:42;;;;;;;14.73;6.13;;;;;;;11.38;100.00;101165.25;5056075;28;20612;-84
2021/08/31 01:12:08;;;;;;;10.88;6.88;;;;;;;11.33;100.00;101169.63;5056234;28;20032;-83
2021/08/31 01:14:33;;;;;;;14.07;6.65;;;;;;;11.27;100.00;101166.25;5056064;28;20025;-83
2021/08/31 01:16:58;;;;;;;13.88;6.45;;;;;;;11.27;100.00;101165.41;5056079;28;20029;-84
2021/08/31 01:19:30;;;;;;;11.90;6.53;;;;;;;11.23;100.00;101163.69;5055916;28;20032;-84
2021/08/31 01:22:07;;;;;;;13.23;6.30;;;;;;;11.14;100.00;101159.44;5054937;28;20115;-83
2021/08/31 01:24:33;;;;;;;11.63;6.38;;;;;;;11.14;100.00;101166.38;5056170;28;20480;-83
2021/08/31 01:26:59;;;;;;;11.52;6.03;;;;;;;11.16;100.00;101165.50;5055883;28;20053;-84
2021/08/31 01:29:29;;;;;;;10.88;7.13;;;;;;;11.15;100.00;101161.19;5077055;22;20114;-86
2021/08/31 01:31:54;;;;;;;11.73;6.85;;;;;;;11.15;100.00;101158.59;5054178;28;20028;-86
2021/08/31 01:34:20;;;;;;;16.55;7.60;;;;;;;11.14;100.00;101162.06;5054916;28;20021;-86
2021/08/31 01:36:45;;;;;;;13.60;6.53;;;;;;;11.10;100.00;101167.31;5054005;28;20439;-86
2021/08/31 01:39:10;;;;;;;14.57;7.45;;;;;;;11.08;100.00;101159.50;5053888;28;20480;-86
2021/08/31 01:41:36;;;;;;;13.32;7.05;;;;;;;11.05;100.00;101167.34;5055425;28;20024;-87
2021/08/31 01:44:01;;;;;;;12.90;7.28;;;;;;;11.05;100.00;101165.63;5055037;28;20033;-87
2021/08/31 01:46:26;;;;;;;16.35;7.47;;;;;;;11.07;100.00;101165.59;5055320;28;20028;-87
2021/08/31 01:48:51;;;;;;;11.18;7.60;;;;;;;10.99;100.00;101168.28;5053629;28;20411;-86
2021/08/31 01:51:18;;;;;;;12.73;7.60;;;;;;;10.99;100.00;101167.41;5055009;28;20037;-86
2021/08/31 01:53:44;;;;;;;11.10;7.53;;;;;;;11.03;100.00;101163.91;5052763;28;20024;-86
2021/08/31 01:56:09;;;;;;;13.90;8.00;;;;;;;11.03;100.00;101159.59;5055001;28;20033;-86
2021/08/31 01:58:35;;;;;;;12.57;7.30;;;;;;;10.98;100.00;101160.50;5053553;28;20115;-86
2021/08/31 02:01:00;;;;;;;15.98;7.53;;;;;;;10.94;100.00;101164.00;5053548;28;20032;-86
2021/08/31 02:03:26;;;;;;;13.82;7.10;;;;;;;10.92;100.00;101165.75;5054751;28;20504;-86
2021/08/31 02:05:51;;;;;;;13.15;7.68;;;;;;;10.88;100.00;101166.66;5053550;28;20025;-86
2021/08/31 02:08:16;;;;;;;14.50;7.88;;;;;;;10.83;100.00;101170.16;5053250;28;20389;-86
2021/08/31 02:10:42;;;;;;;14.55;8.32;;;;;;;10.81;100.00;101165.88;5053420;28;20119;-86
2021/08/31 02:13:08;;;;;;;14.45;7.72;;;;;;;10.82;100.00;101165.84;5054565;28;20033;-86
2021/08/31 02:15:33;;;;;;;18.13;8.38;;;;;;;10.83;100.00;101164.97;5053330;28;20118;-86
2021/08/31 02:17:58;;;;;;;11.90;7.10;;;;;;;10.81;100.00;101160.69;5053379;28;20485;-87
2021/08/31 02:20:24;;;;;;;13.13;7.65;;;;;;;10.82;100.00;101160.66;5053121;28;20020;-86
2021/08/31 02:22:49;;;;;;;15.57;8.45;;;;;;;10.86;100.00;101155.44;5053091;28;20024;-86
2021/08/31 02:25:14;;;;;;;13.73;8.65;;;;;;;10.82;100.00;101155.47;5053352;28;20124;-87
2021/08/31 02:27:40;;;;;;;14.13;8.73;;;;;;;10.87;100.00;101164.94;5053135;28;20389;-87
2021/08/31 02:30:06;;;;;;;15.73;8.82;;;;;;;10.80;100.00;101158.94;5052807;28;20040;-87
2021/08/31 02:32:32;;;;;;;13.63;8.13;;;;;;;10.76;100.00;101163.31;5054163;28;20041;-87
2021/08/31 02:34:57;;;;;;;18.50;8.65;;;;;;;10.77;100.00;101159.81;5052802;28;20025;-87
2021/08/31 02:37:23;;;;;;;17.30;9.65;;;;;;;10.75;100.00;101159.00;5052868;28;20029;-87
2021/08/31 02:39:48;;;;;;;15.63;8.52;;;;;;;10.71;100.00;101159.03;5052769;28;20490;-87
2021/08/31 02:42:13;;;;;;;13.52;8.70;;;;;;;10.68;100.00;101157.31;5052705;28;20025;-87
2021/08/31 02:44:39;;;;;;;14.05;8.82;;;;;;;10.67;100.00;101159.94;5052717;28;20021;-87
2021/08/31 02:47:04;;;;;;;14.98;9.77;;;;;;;10.59;100.00;101162.59;5053963;28;20052;-87
2021/08/31 02:49:29;;;;;;;16.75;9.00;;;;;;;10.57;100.00;101169.53;5053108;28;20017;-87
2021/08/31 02:51:55;;;;;;;17.50;9.18;;;;;;;10.55;100.00;101166.09;5052633;28;20029;-87
2021/08/31 02:54:20;;;;;;;16.83;9.48;;;;;;;10.59;100.00;101171.25;5052421;28;20021;-87
2021/08/31 02:56:45;;;;;;;15.13;9.18;;;;;;;10.54;100.00;101165.22;5053675;28;20500;-87
2021/08/31 02:59:11;;;;;;;16.05;9.80;;;;;;;10.54;100.00;101159.19;5052504;28;20114;-87
2021/08/31 03:02:04;;;;;;;14.85;9.15;;;;;;;10.52;100.00;101163.50;5053658;28;20036;-87
2021/08/31 03:04:25;;;;;;;13.45;8.52;;;;;;;10.49;100.00;101163.53;5053626;28;20473;-87
2021/08/31 03:06:50;;;;;;;16.67;10.10;;;;;;;10.48;100.00;101167.03;5052426;28;20123;-87
2021/08/31 03:09:15;;;;;;;14.85;9.73;;;;;;;10.47;100.00;101166.16;5052236;28;20112;-87
2021/08/31 03:11:41;;;;;;;15.38;10.18;;;;;;;10.45;100.00;101167.03;5053500;28;20032;-87
2021/08/31 03:14:06;;;;;;;16.17;10.30;;;;;;;10.45;100.00;101167.03;5052177;28;20477;-87
2021/08/31 03:16:32;;;;;;;19.48;10.27;;;;;;;10.43;100.00;101166.19;5052203;28;20111;-87
2021/08/31 03:18:57;;;;;;;16.77;10.68;;;;;;;10.42;100.00;101164.47;5052439;28;20024;-86
2021/08/31 03:21:22;;;;;;;17.77;11.02;;;;;;;10.43;100.00;101164.44;5052252;28;20021;-87
2021/08/31 03:23:47;;;;;;;19.20;10.85;;;;;;;10.43;100.00;101161.84;5053590;28;20056;-87
2021/08/31 03:26:13;;;;;;;18.63;11.23;;;;;;;10.47;100.00;101162.72;5053334;28;20024;-87
2021/08/31 03:28:38;;;;;;;17.05;9.93;;;;;;;10.44;100.00;101152.38;5053235;28;20037;-86
2021/08/31 03:31:03;;;;;;;15.88;11.05;;;;;;;10.51;100.00;101154.03;5052088;28;20029;-86
2021/08/31 03:33:29;;;;;;;19.60;10.70;;;;;;;10.47;100.00;101160.13;5052094;28;20071;-87
2021/08/31 03:35:54;;;;;;;20.67;11.27;;;;;;;10.45;100.00;101159.25;5051964;28;20079;-87
2021/08/31 03:38:19;;;;;;;17.02;10.27;;;;;;;10.45;100.00;101165.31;5051967;28;20163;-86
2021/08/31 03:40:44;;;;;;;18.75;11.90;;;;;;;10.47;100.00;101158.38;5051877;28;20021;-86
2021/08/31 03:43:10;;;;;;;18.88;11.75;;;;;;;10.49;100.00;101160.94;5053444;28;20472;-86
2021/08/31 03:45:35;;;;;;;19.95;10.93;;;;;;;10.45;100.00;101165.31;5051888;28;20025;-86
2021/08/31 03:48:00;;;;;;;20.35;11.70;;;;;;;10.46;100.00;101167.00;5051904;28;20025;-86
2021/08/31 03:50:26;;;;;;;20.40;10.85;;;;;;;10.47;100.00;101163.56;5051649;28;20083;-86
2021/08/31 03:52:51;;;;;;;17.33;11.25;;;;;;;10.44;100.00;101160.16;5052345;28;20033;-87
2021/08/31 03:55:16;;;;;;;17.17;10.40;;;;;;;10.41;100.00;101163.63;5051752;28;20021;-87
2021/08/31 03:57:41;;;;;;;17.55;10.23;;;;;;;10.46;100.00;101166.16;5053206;28;20431;-87
2021/08/31 04:00:07;;;;;;;16.65;10.35;;;;;;;10.40;100.00;101164.47;5052888;28;20017;-87
2021/08/31 04:02:32;;;;;;;18.75;10.40;;;;;;;10.40;100.00;101167.06;5052958;28;20037;-87
2021/08/31 04:04:58;;;;;;;21.55;10.93;;;;;;;10.36;100.00;101166.22;5052994;28;20033;-87
2021/08/31 04:07:23;;;;;;;18.27;10.93;;;;;;;10.36;100.00;101174.00;5051757;28;20021;-87
2021/08/31 04:09:48;;;;;;;25.98;11.20;;;;;;;10.37;100.00;101174.88;5052700;28;20021;-87
2021/08/31 04:12:14;;;;;;;18.33;11.18;;;;;;;10.40;100.00;101166.22;5051729;28;20025;-87
2021/08/31 04:14:39;;;;;;;16.40;10.75;;;;;;;10.40;100.00;101174.00;5051664;28;20081;-87
2021/08/31 04:17:04;;;;;;;17.75;10.63;;;;;;;10.41;100.00;101180.91;5055131;28;20032;-86
2021/08/31 04:19:29;;;;;;;21.15;11.32;;;;;;;10.32;100.00;101179.25;5055420;28;20021;-86
2021/08/31 04:21:55;;;;;;;18.75;10.60;;;;;;;10.33;100.00;101187.00;5055480;28;20028;-86
2021/08/31 04:24:20;;;;;;;18.48;10.30;;;;;;;10.33;100.00;101184.41;5055549;28;20102;-86
2021/08/31 04:26:45;;;;;;;21.70;11.45;;;;;;;10.31;100.00;101188.75;5055300;28;20029;-86
2021/08/31 04:29:11;;;;;;;21.15;10.77;;;;;;;10.33;100.00;101197.38;5055056;28;20033;-86
2021/08/31 04:31:36;;;;;;;20.52;11.13;;;;;;;10.39;100.00;101198.22;5055189;28;20417;-86
2021/08/31 04:34:01;;;;;;;20.30;10.27;;;;;;;10.38;100.00;101188.72;5055127;28;20029;-86
2021/08/31 04:36:27;;;;;;;17.60;11.30;;;;;;;10.35;100.00;101194.78;5055116;28;20454;-86
2021/08/31 04:38:53;;;;;;;26.13;10.93;;;;;;;10.36;100.00;101196.50;5056448;28;20017;-86
2021/08/31 04:41:18;;;;;;;18.75;10.98;;;;;;;10.39;100.00;101193.03;5055067;28;20021;-86
2021/08/31 04:43:44;;;;;;;20.80;10.95;;;;;;;10.38;100.00;101194.75;5055032;28;20334;-86
2021/08/31 04:46:12;;;;;;;16.98;10.52;;;;;;;10.37;100.00;101193.00;5055356;28;20191;-86
2021/08/31 04:48:38;;;;;;;16.40;11.13;;;;;;;10.41;100.00;101193.88;5056264;28;20496;-86
2021/08/31 04:51:04;;;;;;;18.02;10.70;;;;;;;10.40;100.00;101195.59;5055140;28;20412;-86
2021/08/31 04:53:29;;;;;;;18.00;10.45;;;;;;;10.46;100.00;101199.88;5054839;28;20041;-86
2021/08/31 04:55:55;;;;;;;19.98;11.65;;;;;;;10.41;100.00;101199.94;5054837;28;20048;-86
2021/08/31 04:58:20;;;;;;;17.98;10.88;;;;;;;10.45;100.00;101203.34;5054653;28;20108;-86
2021/08/31 05:00:45;;;;;;;17.05;10.68;;;;;;;10.43;100.00;101192.13;5055122;28;20031;-86
2021/08/31 05:03:10;;;;;;;22.30;10.40;;;;;;;10.43;100.00;101199.91;5056224;28;20074;-86
2021/08/31 05:05:36;;;;;;;22.73;10.50;;;;;;;10.48;100.00;101195.53;5054553;28;20040;-86
2021/08/31 05:08:01;;;;;;;15.57;10.02;;;;;;;10.50;100.00;101201.56;5056187;28;20033;-86
2021/08/31 05:10:26;;;;;;;17.85;10.02;;;;;;;10.53;100.00;101196.34;5054467;28;20013;-86
2021/08/31 05:12:52;;;;;;;18.38;10.68;;;;;;;10.54;100.00;101201.53;5054791;28;20029;-87
2021/08/31 05:15:17;;;;;;;19.48;10.13;;;;;;;10.57;100.00;101205.84;5054464;28;20043;-87
2021/08/31 05:17:43;;;;;;;17.25;9.23;;;;;;;10.60;100.00;101196.31;5055689;28;20496;-88
2021/08/31 05:20:09;;;;;;;18.15;11.10;;;;;;;10.60;100.00;101206.69;5054206;28;20024;-88
2021/08/31 05:22:34;;;;;;;17.48;9.57;;;;;;;10.66;100.00;101205.78;5054896;28;20025;-88
2021/08/31 05:25:01;;;;;;;18.13;10.15;;;;;;;10.69;100.00;101210.94;5055874;28;20025;-88
2021/08/31 05:27:26;;;;;;;16.35;10.55;;;;;;;10.77;100.00;101213.47;5054188;28;20025;-87
2021/08/31 05:29:52;;;;;;;15.63;9.65;;;;;;;10.79;100.00;101212.56;5055222;28;20477;-87
2021/08/31 05:32:18;;;;;;;15.98;10.05;;;;;;;10.86;100.00;101222.91;5054174;28;20035;-87
2021/08/31 05:34:43;;;;;;;15.98;9.18;;;;;;;10.88;100.00;101221.16;5055298;28;20021;-87
2021/08/31 05:37:09;;;;;;;14.18;8.88;;;;;;;10.93;100.00;101221.97;5054183;28;20112;-88
2021/08/31 05:39:34;;;;;;;16.65;9.63;;;;;;;11.02;100.00;101224.47;5054042;28;20481;-88
2021/08/31 05:42:05;;;;;;;18.17;10.95;;;;;;;11.10;100.00;101227.00;5054775;28;20191;-88
2021/08/31 05:44:32;;;;;;;16.40;9.90;;;;;;;11.17;100.00;101229.53;5055240;28;20082;-88
2021/08/31 05:46:57;;;;;;;15.80;9.52;;;;;;;11.27;100.00;101231.16;5053843;28;20029;-88
2021/08/31 05:49:23;;;;;;;16.73;9.15;;;;;;;11.33;100.00;101230.25;5054008;28;20473;-88
2021/08/31 05:51:48;;;;;;;18.45;10.23;;;;;;;11.46;100.00;101229.22;5053745;28;20025;-88
2021/08/31 05:54:13;;;;;;;16.75;9.65;;;;;;;11.83;100.00;101228.78;5054951;28;20040;-88
2021/08/31 05:56:39;;;;;;;15.02;9.02;;;;;;;12.26;100.00;101222.19;5053798;28;20035;-88
2021/08/31 05:59:04;;;;;;;15.95;8.75;;;;;;;12.51;100.00;101226.13;5053497;28;20021;-87
2021/08/31 06:01:29;;;;;;;15.95;10.23;;;;;;;12.85;100.00;101220.38;5054313;28;20017;-87
2021/08/31 06:03:54;;;;;;;15.77;8.43;;;;;;;13.26;100.00;101216.22;5053476;28;20032;-87
2021/08/31 06:06:20;;;;;;;15.68;8.70;;;;;;;13.48;100.00;101222.72;5053541;28;20424;-87
2021/08/31 06:08:46;;;;;;;14.15;8.15;;;;;;;13.75;100.00;101223.91;5053371;28;20111;-87
2021/08/31 06:11:11;;;;;;;14.43;7.38;;;;;;;13.75;100.00;101226.53;5054772;28;20485;-87
2021/08/31 06:13:39;;;;;;;15.73;8.18;;;;;;;14.04;100.00;101227.69;5053478;28;20016;-87
2021/08/31 06:16:04;;;;;;;13.93;7.50;;;;;;;14.17;100.00;101229.13;5054596;28;20095;-88
2021/08/31 06:18:29;;;;;;;15.80;8.05;;;;;;;14.24;100.00;101230.69;5053416;28;20079;-88
2021/08/31 06:20:55;;;;;;;14.20;7.22;;;;;;;14.70;100.00;101224.41;5053382;28;20033;-88
2021/08/31 06:23:20;;;;;;;17.30;7.40;;;;;;;14.65;100.00;101228.03;5053351;28;20036;-89
2021/08/31 06:25:45;;;;;;;20.08;7.60;;;;;;;14.76;100.00;101227.78;5053079;28;20476;-88
2021/08/31 06:28:11;;;;;;;12.77;7.30;;;;;;;14.94;100.00;101233.41;5052841;28;20023;-89
2021/08/31 06:30:36;;;;;;;12.77;7.10;;;;;;;15.14;100.00;101229.41;5054327;28;20025;-89
2021/08/31 06:33:01;;;;;;;15.45;7.97;;;;;;;15.41;100.00;101233.88;5054792;28;20389;-89
2021/08/31 06:35:26;;;;;;;11.38;7.47;;;;;;;15.45;100.00;101225.97;5053072;28;20029;-87
2021/08/31 06:37:52;;;;;;;11.75;7.30;;;;;;;15.49;100.00;101232.84;5052895;28;20107;-88
2021/08/31 06:40:17;;;;;;;12.95;7.72;;;;;;;15.78;100.00;101232.88;5052548;28;20102;-87
2021/08/31 06:42:42;;;;;;;12.05;7.57;;;;;;;15.65;100.00;101240.19;5052839;28;20025;-87
2021/08/31 06:45:08;;;;;;;10.90;6.85;;;;;;;16.26;100.00;101234.94;5052763;28;20023;-87
2021/08/31 06:47:33;;;;;;;10.95;6.45;;;;;;;16.18;100.00;101231.69;5052744;28;20107;-87
2021/08/31 06:49:58;;;;;;;12.13;6.85;;;;;;;16.27;100.00;101227.94;5052592;28;20388;-87
2021/08/31 06:52:24;;;;;;;12.93;6.50;;;;;;;15.98;100.00;101236.66;5054022;28;20029;-87
2021/08/31 06:54:49;;;;;;;13.07;6.85;;;;;;;16.42;100.00;101237.06;5054195;28;20028;-87
2021/08/31 06:57:14;;;;;;;16.73;7.47;;;;;;;16.65;100.00;101228.47;5052921;28;20120;-87
2021/08/31 06:59:39;;;;;;;12.10;6.82;;;;;;;17.05;100.00;101235.03;5053013;28;20017;-86
2021/08/31 07:02:05;;;;;;;12.95;6.45;;;;;;;17.01;100.00;101234.28;5055022;28;20143;-87
2021/08/31 07:04:30;;;;;;;12.88;6.30;;;;;;;17.58;100.00;101227.91;5053533;28;20062;-87
2021/08/31 07:06:55;;;;;;;17.08;6.75;;;;;;;17.34;100.00;101234.88;5053765;28;20033;-87
2021/08/31 07:09:21;;;;;;;12.10;7.38;;;;;;;17.78;100.00;101231.59;5053450;28;20029;-88
2021/08/31 07:11:46;;;;;;;9.82;6.30;;;;;;;18.16;100.00;101233.59;5052390;28;20029;-88
2021/08/31 07:14:12;;;;;;;10.98;6.68;;;;;;;18.14;100.00;101230.19;5053665;28;20021;-88
2021/08/31 07:16:37;;;;;;;13.63;6.50;;;;;;;18.27;100.00;101230.53;5052322;28;20435;-88
2021/08/31 07:19:02;;;;;;;10.98;6.50;;;;;;;18.70;100.00;101222.72;5052807;28;20370;-88
2021/08/31 07:21:28;;;;;;;10.20;6.03;;;;;;;18.60;100.00;101228.34;5052332;28;20432;-88
2021/08/31 07:23:53;;;;;;;11.25;6.18;;;;;;;18.64;100.00;101234.31;5052159;28;20461;-88
2021/08/31 07:26:19;;;;;;;10.32;6.05;;;;;;;18.92;100.00;101234.06;5052183;28;20021;-88
2021/08/31 07:28:44;;;;;;;11.80;6.25;;;;;;;19.16;100.00;101240.06;5052028;28;20025;-88
2021/08/31 07:33:37;;;;;;;10.35;5.50;;;;;;;19.63;100.00;101241.50;5075978;28;20060;-84
2021/08/31 07:36:03;;;;;;;13.40;6.05;;;;;;;19.54;100.00;101243.63;5061143;28;20024;-83
2021/08/31 07:38:28;;;;;;;11.50;5.97;;;;;;;19.35;100.00;101245.38;5057947;28;20147;-84
2021/08/31 07:40:53;;;;;;;8.88;5.60;;;;;;;20.11;99.69;101250.75;5057103;28;20020;-84
2021/08/31 07:43:19;;;;;;;12.45;6.00;;;;;;;19.60;100.00;101253.03;5056747;28;20027;-83
2021/08/31 07:45:45;;;;;;;9.18;5.38;;;;;;;20.09;98.45;101252.59;5056725;28;20042;-84
2021/08/31 07:48:10;;;;;;;15.07;6.10;;;;;;;20.05;100.00;101253.66;5056715;28;20492;-82
2021/08/31 07:50:35;;;;;;;11.93;5.97;;;;;;;20.17;97.48;101246.03;5057426;28;20033;-82
2021/08/31 07:53:00;;;;;;;11.15;5.45;;;;;;;20.29;97.99;101249.00;5078224;28;20273;-83
2021/08/31 07:55:27;;;;;;;11.70;5.28;;;;;;;20.57;96.22;101253.84;5061862;28;20500;-83
2021/08/31 07:57:52;;;;;;;10.05;5.20;;;;;;;20.95;92.20;101249.31;5078562;28;20029;-83
2021/08/31 08:00:18;;;;;;;8.43;4.93;;;;;;;20.18;92.73;101265.34;5060797;28;20108;-83
2021/08/31 08:02:45;;;;;;;9.23;5.05;;;;;;;21.11;89.87;101262.56;5061760;28;20051;-83
2021/08/31 08:05:11;;;;;;;13.55;5.47;;;;;;;21.23;91.10;101261.94;5079834;28;20025;-82
2021/08/31 08:07:37;;;;;;;11.52;5.30;;;;;;;21.26;91.16;101264.41;5078758;28;20105;-82
2021/08/31 08:10:04;;;;;;;11.73;5.60;;;;;;;21.15;86.35;101264.09;5080261;28;20031;-82
2021/08/31 08:12:29;;;;;;;10.27;5.30;;;;;;;21.51;87.62;101271.94;5081629;28;20036;-83
2021/08/31 08:14:55;;;;;;;9.70;5.43;;;;;;;21.36;84.94;101278.84;5063209;28;20028;-82
2021/08/31 08:17:22;;;;;;;10.80;5.28;;;;;;;21.63;87.74;101281.00;5060530;28;20430;-81
2021/08/31 08:19:48;;;;;;;11.13;4.95;;;;;;;21.33;90.26;101278.13;5061840;28;20016;-81
2021/08/31 08:22:14;;;;;;;10.20;5.50;;;;;;;21.35;87.38;101271.88;5062442;28;20024;-82
2021/08/31 08:24:40;;;;;;;10.88;5.03;;;;;;;21.98;83.67;101280.88;5063752;28;20027;-81
2021/08/31 08:27:06;;;;;;;9.40;4.40;;;;;;;22.40;81.21;101279.50;5063072;28;20024;-82
2021/08/31 08:29:32;;;;;;;10.57;3.85;;;;;;;21.83;81.50;101283.44;5061718;28;20020;-82
2021/08/31 08:31:57;;;;;;;8.80;4.40;;;;;;;22.00;79.30;101284.31;5061786;28;20031;-82
2021/08/31 08:34:23;;;;;;;8.75;3.92;;;;;;;22.94;75.83;101288.72;5079255;28;20101;-82
2021/08/31 08:36:49;;;;;;;7.90;4.10;;;;;;;22.92;75.46;101289.72;5079691;28;20032;-82
2021/08/31 08:39:14;;;;;;;10.63;4.05;;;;;;;22.67;74.26;101295.59;5079313;28;20028;-81
2021/08/31 08:41:40;;;;;;;9.90;4.30;;;;;;;22.39;78.34;101291.00;5061553;28;20017;-82
2021/08/31 08:44:06;;;;;;;10.73;4.55;;;;;;;22.02;80.87;101288.56;5079195;28;20020;-82
2021/08/31 08:46:31;;;;;;;7.13;4.10;;;;;;;22.65;74.45;101292.16;5079088;28;20024;-82
2021/08/31 08:48:57;;;;;;;8.68;4.22;;;;;;;22.28;75.53;101289.78;5061350;28;20056;-82
2021/08/31 08:51:23;;;;;;;7.95;4.10;;;;;;;22.77;76.31;101295.91;5061594;28;20032;-82
2021/08/31 08:53:48;;;;;;;10.15;4.55;;;;;;;22.88;76.86;101289.06;5061823;28;20035;-82
2021/08/31 08:56:13;;;;;;;7.95;3.60;;;;;;;23.74;73.07;101285.75;5062098;28;20020;-82
2021/08/31 08:58:39;;;;;;;9.60;4.05;;;;;;;23.72;74.97;101285.00;5061899;28;20112;-82
2021/08/31 09:01:07;;;;;;;9.40;4.15;;;;;;;23.23;72.73;101286.16;5061634;28;20025;-82
2021/08/31 09:03:35;;;;;;;6.93;3.88;;;;;;;23.66;68.62;101295.00;5061434;28;20024;-82
2021/08/31 09:06:26;;;;;;;11.95;4.30;;;;;;;23.24;72.37;101287.84;5079509;28;20082;-81
2021/08/31 09:09:00;;;;;;;10.35;4.75;;;;;;;23.69;71.15;101288.69;5058202;28;20120;-82
2021/08/31 09:11:28;;;;;;;;;;;;;;;23.69;69.50;101279.88;5082358;28;20032;-82
2021/08/31 09:14:18;;;;;;;8.32;3.92;;;;;;;22.96;71.05;101284.19;5079966;28;19908;-82
2021/08/31 09:17:07;;;;;;;8.40;3.67;;;;;;;23.64;67.02;101291.56;5079855;28;20086;-82
2021/08/31 09:19:40;;;;;;;9.23;3.80;;;;;;;24.02;67.84;101283.09;5062835;28;20458;-81
2021/08/31 09:22:17;;;;;;;8.88;3.92;;;;;;;23.98;68.41;101288.66;5080145;28;20095;-82
2021/08/31 09:25:07;;;;;;;10.40;3.40;;;;;;;23.30;69.28;101284.84;5078991;28;20059;-82
2021/08/31 09:27:38;;;;;;;8.13;3.85;;;;;;;23.84;66.00;101295.69;5062166;28;20111;-82
2021/08/31 09:30:30;;;;;;;8.02;3.40;;;;;;;24.29;64.97;101298.16;5062356;28;20017;-82
2021/08/31 09:33:09;;;;;;;8.68;3.88;;;;;;;24.00;68.03;101294.72;5060652;28;20028;-83
2021/08/31 09:35:47;;;;;;;7.72;3.85;;;;;;;24.49;66.82;101302.25;5063532;28;20020;-82
2021/08/31 09:38:18;;;;;;;11.65;3.88;;;;;;;24.35;62.09;101300.44;5082345;28;20032;-82
2021/08/31 09:40:46;;;;;;;6.63;3.20;;;;;;;24.91;62.82;101305.66;5083243;28;20066;-82
2021/08/31 09:43:17;;;;;;;9.48;3.53;;;;;;;24.61;58.56;101301.44;5063402;28;20028;-82
2021/08/31 09:45:45;;;;;;;6.32;2.90;;;;;;;24.80;61.09;101293.13;5083376;28;20543;-82
2021/08/31 09:48:13;;;;;;;10.73;3.95;;;;;;;25.34;58.80;101298.38;5081937;28;20029;-82
2021/08/31 09:50:47;;;;;;;7.55;3.33;;;;;;;25.54;60.15;101296.97;5081462;28;20028;-82
2021/08/31 09:53:17;;;;;;;;;;;;;;;25.41;55.54;101293.47;5064292;28;20028;-82
2021/08/31 09:56:10;;;;;;;8.00;3.42;;;;;;;24.09;60.15;101300.31;5081791;28;20310;-82
2021/08/31 09:58:38;;;;;;;8.20;3.50;;;;;;;24.34;59.19;101296.09;5066209;28;20055;-82
2021/08/31 10:01:03;;;;;;;10.43;3.78;;;;;;;24.27;59.68;101292.13;5082561;28;20052;-82
2021/08/31 10:03:30;;;;;;;7.55;3.22;;;;;;;24.82;60.26;101296.53;5083255;28;20031;-82
2021/08/31 10:05:58;;;;;;;6.90;3.45;;;;;;;24.68;58.09;101288.63;5082224;28;20024;-82
2021/08/31 10:08:25;;;;;;;13.57;3.88;;;;;;;25.22;56.15;101292.06;5063205;28;20028;-82
2021/08/31 10:10:54;;;;;;;9.57;3.67;;;;;;;24.98;56.27;101291.06;5081142;28;20060;-82
2021/08/31 10:13:22;;;;;;;6.90;2.92;;;;;;;23.79;60.14;101292.47;5080873;28;20028;-83
2021/08/31 10:15:50;;;;;;;12.88;4.18;;;;;;;24.19;60.00;101299.72;5063574;28;20162;-82
2021/08/31 10:18:19;;;;;;;7.43;3.65;;;;;;;23.00;64.20;101295.47;5081625;28;20380;-83
2021/08/31 10:20:53;;;;;;;7.55;3.72;;;;;;;23.11;63.97;101294.81;5062882;28;20044;-82
2021/08/31 10:23:27;;;;;;;8.35;3.80;;;;;;;24.73;59.20;101289.19;5063155;28;20020;-83
2021/08/31 10:25:52;;;;;;;;;;;;;;;22.36;67.58;101296.47;5064623;28;20028;-82
2021/08/31 10:28:23;;;;;;;8.10;3.50;;;;;;;23.42;66.00;101297.34;5081294;28;19960;-82
2021/08/31 10:30:49;;;;;;;7.53;3.53;;;;;;;23.10;63.24;101286.03;5061874;28;20278;-82
2021/08/31 10:33:39;;;;;;;10.02;3.78;;;;;;;23.31;64.48;101291.00;5082444;28;20044;-82
2021/08/31 10:36:07;;;;;;;8.82;3.10;;;;;;;22.94;64.75;101291.38;5081883;28;20025;-83
2021/08/31 10:38:45;;;;;;;6.15;3.05;;;;;;;22.08;67.21;101302.41;5063645;28;20024;-82
2021/08/31 10:41:44;;;;;;;6.78;3.08;;;;;;;23.52;61.82;101299.41;5080965;28;20024;-83
2021/08/31 10:44:15;;;;;;;7.18;2.80;;;;;;;23.08;60.86;101302.94;5081583;28;20031;-82
2021/08/31 10:46:55;;;;;;;8.52;3.30;;;;;;;24.67;58.07;101301.03;5081708;28;20044;-82
2021/08/31 10:49:21;;;;;;;8.15;3.05;;;;;;;25.40;55.21;101302.38;5062913;28;20035;-82
2021/08/31 10:52:06;;;;;;;8.38;3.38;;;;;;;24.65;54.96;101302.94;5063665;28;20028;-83
2021/08/31 10:54:44;;;;;;;7.38;2.92;;;;;;;23.57;57.83;101305.31;5061969;28;20024;-83
2021/08/31 10:57:35;;;;;;;5.95;2.97;;;;;;;21.84;64.15;101306.25;5062917;28;20032;-82
2021/08/31 11:00:01;;;;;;;7.30;3.30;;;;;;;22.69;63.47;101299.84;5080732;28;20079;-82
2021/08/31 11:02:51;;;;;;;6.80;3.40;;;;;;;25.44;53.73;101296.75;5060582;28;20066;-82
2021/08/31 11:05:26;;;;;;;8.32;3.25;;;;;;;22.77;59.12;101307.34;5059451;28;20412;-81
2021/08/31 11:07:54;;;;;;;7.60;3.45;;;;;;;22.34;61.00;101296.53;5078776;28;20020;-82
2021/08/31 11:10:24;;;;;;;5.35;3.00;;;;;;;21.67;65.61;101298.38;5081400;28;20032;-82
2021/08/31 11:12:51;;;;;;;7.47;3.47;;;;;;;21.58;66.85;101296.22;5062477;28;20028;-82
2021/08/31 11:15:24;;;;;;;9.40;3.05;;;;;;;21.18;71.20;101300.03;5062828;28;20082;-82